Time;durP1;ratioP1;P1;durP2;ratioP2;P2;SDS_P1;SDS_P2;PMS_P1;PMS_P2;Temp;Humidity;BMP_temperature;BMP_pressure;BME280_temperature;BME280_humidity;BME280_pressure;Samples;Min_cycle;Max_cycle;Signal;HPM_P1;HPM_P2
2022/08/18 00:09:58;;;;;;;5.25;4.68;;;;;;;15.98;100.00;97520.06;18294393;32;20105;-63
2022/08/18 00:20:02;;;;;;;4.00;3.57;;;;;;;15.77;100.00;97487.78;18280304;32;20093;-63
2022/08/18 00:30:09;;;;;;;3.97;3.55;;;;;;;15.67;100.00;97482.59;18280342;32;20054;-63
2022/08/18 00:40:16;;;;;;;4.07;3.47;;;;;;;15.53;100.00;97480.72;18293502;32;20473;-63
2022/08/18 00:50:27;;;;;;;3.92;2.92;;;;;;;15.46;100.00;97458.53;18298140;32;20094;-63
2022/08/18 01:00:29;;;;;;;3.95;3.37;;;;;;;15.34;100.00;97441.91;18303355;32;20058;-64
2022/08/18 01:10:33;;;;;;;4.20;3.60;;;;;;;15.35;100.00;97438.88;18289676;32;20374;-64
2022/08/18 01:31:07;;;;;;;4.60;3.80;;;;;;;15.40;100.00;97451.56;18302247;32;20098;-63
2022/08/18 01:41:10;;;;;;;4.72;3.85;;;;;;;15.42;100.00;97455.59;18301768;32;20059;-63
2022/08/18 01:51:33;;;;;;;4.28;3.78;;;;;;;15.46;100.00;97439.47;18301316;32;20381;-63
2022/08/18 02:01:46;;;;;;;4.45;3.53;;;;;;;15.42;100.00;97427.56;18299758;32;20499;-63
2022/08/18 02:11:55;;;;;;;3.62;3.20;;;;;;;15.31;100.00;97437.09;18300133;32;20062;-64
2022/08/18 02:21:57;;;;;;;4.70;3.72;;;;;;;15.31;100.00;97421.53;18286072;32;20092;-64
2022/08/18 02:31:59;;;;;;;5.43;3.90;;;;;;;15.23;100.00;97417.63;18299269;32;20427;-64
2022/08/18 02:42:06;;;;;;;5.72;4.28;;;;;;;15.20;100.00;97410.06;18284641;32;20089;-63
2022/08/18 02:52:09;;;;;;;9.88;4.87;;;;;;;15.24;100.00;97400.16;18298095;32;20058;-63
2022/08/18 03:02:12;;;;;;;4.80;3.92;;;;;;;15.27;100.00;97381.63;18297389;32;20058;-63
2022/08/18 03:12:14;;;;;;;4.60;4.18;;;;;;;15.19;100.00;97383.94;18296087;32;20080;-63
2022/08/18 03:22:17;;;;;;;6.03;4.00;;;;;;;15.10;100.00;97376.81;18296678;32;20107;-63
2022/08/18 03:32:30;;;;;;;4.72;3.80;;;;;;;15.10;100.00;97344.12;18282328;32;20122;-63
2022/08/18 03:42:33;;;;;;;4.90;3.42;;;;;;;15.14;100.00;97359.53;18281727;32;20076;-63
2022/08/18 03:52:37;;;;;;;5.90;4.28;;;;;;;15.17;100.00;97349.94;18295084;32;20073;-63
2022/08/18 04:02:43;;;;;;;6.20;4.50;;;;;;;15.19;100.00;97347.75;18294768;32;20058;-63
2022/08/18 04:12:45;;;;;;;7.45;5.82;;;;;;;15.24;100.00;97381.09;18280859;32;20070;-63
2022/08/18 04:22:48;;;;;;;4.82;4.32;;;;;;;15.25;100.00;97385.44;18295941;32;20331;-63
2022/08/18 04:32:51;;;;;;;6.22;4.40;;;;;;;15.33;100.00;97397.50;18305155;32;20061;-63
2022/08/18 04:42:54;;;;;;;5.10;4.60;;;;;;;15.40;100.00;97402.53;18290972;32;20085;-63
2022/08/18 05:03:18;;;;;;;6.50;5.07;;;;;;;15.66;100.00;97421.00;18303556;32;20062;-63
2022/08/18 05:13:24;;;;;;;4.05;3.60;;;;;;;15.72;100.00;97415.13;18289020;32;20074;-63
2022/08/18 05:23:28;;;;;;;5.47;4.30;;;;;;;15.76;100.00;97418.84;18276609;32;20100;-63
2022/08/18 05:33:31;;;;;;;;;;;;;;;15.87;100.00;97415.91;18301581;32;20109;-63
2022/08/18 05:43:36;;;;;;;4.97;4.47;;;;;;;16.01;100.00;97419.34;18287968;32;19953;-63
2022/08/18 06:04:34;;;;;;;4.40;3.92;;;;;;;16.27;100.00;97448.72;18300801;32;20054;-63
2022/08/18 06:14:41;;;;;;;6.03;4.60;;;;;;;16.32;100.00;97458.66;18286794;32;20096;-63
2022/08/18 06:25:28;;;;;;;5.15;4.35;;;;;;;16.63;100.00;97445.03;18273566;32;20125;-63
2022/08/18 06:35:44;;;;;;;6.55;4.80;;;;;;;17.09;100.00;97501.13;18298698;32;20129;-63
2022/08/18 06:46:12;;;;;;;5.20;4.63;;;;;;;17.49;100.00;97453.75;18298557;32;20084;-63
2022/08/18 06:56:36;;;;;;;6.70;5.07;;;;;;;17.92;100.00;97468.59;18297578;32;20130;-63
2022/08/18 07:06:40;;;;;;;6.45;5.60;;;;;;;17.87;100.00;97472.28;18283910;32;20057;-63
2022/08/18 07:17:15;;;;;;;5.95;4.47;;;;;;;17.64;100.00;97490.75;18296710;32;20062;-64
2022/08/18 07:27:40;;;;;;;8.52;4.15;;;;;;;17.72;100.00;97481.75;18283048;32;20430;-63
2022/08/18 07:38:18;;;;;;;6.28;4.75;;;;;;;18.05;100.00;97522.31;18282633;32;20062;-63
2022/08/18 07:49:04;;;;;;;5.82;4.60;;;;;;;18.32;100.00;97536.78;18291810;32;20102;-64
2022/08/18 07:59:34;;;;;;;6.80;5.30;;;;;;;18.43;100.00;97507.13;18280843;32;20039;-63
2022/08/18 08:10:34;;;;;;;8.48;5.40;;;;;;;18.99;100.00;97479.72;18294779;32;20165;-63
2022/08/18 08:20:47;;;;;;;5.50;4.50;;;;;;;19.64;100.00;97466.59;18294071;32;20074;-63
2022/08/18 08:31:05;;;;;;;6.60;6.00;;;;;;;19.82;100.00;97471.97;18293457;32;20358;-63
2022/08/18 08:41:27;;;;;;;5.57;4.80;;;;;;;19.57;100.00;97452.63;18293320;32;20058;-63
2022/08/18 08:51:43;;;;;;;6.32;5.70;;;;;;;19.77;100.00;97461.16;18293088;32;20050;-63
2022/08/18 09:02:09;;;;;;;6.05;5.45;;;;;;;19.67;100.00;97473.34;18292983;32;20113;-63
2022/08/18 09:13:26;;;;;;;6.55;5.95;;;;;;;19.58;100.00;97506.34;18296248;32;20054;-63
2022/08/18 09:23:40;;;;;;;7.15;5.37;;;;;;;19.59;100.00;97498.91;18302707;32;20347;-63
2022/08/18 09:34:29;;;;;;;6.63;5.90;;;;;;;20.41;100.00;97464.63;18275935;32;20124;-63
2022/08/18 09:44:54;;;;;;;7.30;5.78;;;;;;;21.31;93.90;97457.38;18301506;32;20081;-63
2022/08/18 09:55:36;;;;;;;5.28;4.78;;;;;;;21.07;90.67;97432.66;18286971;32;20063;-63
2022/08/18 10:06:04;;;;;;;6.03;4.82;;;;;;;21.85;87.41;97400.38;18285563;32;20062;-63
2022/08/18 10:16:24;;;;;;;4.78;4.20;;;;;;;22.57;79.57;97410.53;18300126;32;20053;-63
2022/08/18 10:26:58;;;;;;;5.30;3.83;;;;;;;22.43;82.50;97435.78;18298945;32;20439;-63
2022/08/18 10:37:43;;;;;;;4.15;3.55;;;;;;;22.67;84.56;97418.25;18299086;32;20490;-63
2022/08/18 10:48:23;;;;;;;4.15;3.75;;;;;;;22.73;79.11;97415.25;18299150;32;20434;-63
2022/08/18 10:59:15;;;;;;;5.68;3.65;;;;;;;22.49;80.08;97419.78;18297853;32;20073;-63
2022/08/18 11:09:32;;;;;;;4.70;4.00;;;;;;;22.37;82.63;97375.78;17977178;33;20115;-63
2022/08/18 11:19:39;;;;;;;5.93;4.80;;;;;;;22.22;80.08;97350.59;17976578;32;20487;-63
2022/08/18 11:29:59;;;;;;;3.87;3.40;;;;;;;22.21;76.92;97354.50;17976208;32;20084;-63
2022/08/18 11:40:12;;;;;;;3.78;3.42;;;;;;;22.31;79.40;97350.41;18098739;32;20050;-63
2022/08/18 11:50:49;;;;;;;4.82;3.67;;;;;;;22.96;78.43;97358.28;18295630;32;20058;-62
2022/08/18 12:01:51;;;;;;;4.68;4.28;;;;;;;23.33;74.77;97355.16;18294707;32;20062;-62
2022/08/18 12:12:00;;;;;;;5.50;4.37;;;;;;;23.22;71.42;97369.91;18294661;32;20106;-62
2022/08/18 12:22:16;;;;;;;9.48;4.40;;;;;;;23.17;73.00;97368.22;18294426;32;20087;-62
2022/08/18 12:32:38;;;;;;;7.90;5.53;;;;;;;23.78;74.74;97374.22;18294137;32;20096;-62
2022/08/18 12:43:02;;;;;;;5.15;4.57;;;;;;;23.23;70.54;97377.81;18294291;32;20109;-62
2022/08/18 13:04:19;;;;;;;5.03;4.15;;;;;;;23.66;71.36;97329.03;18300335;32;20050;-62
2022/08/18 13:14:28;;;;;;;5.45;4.22;;;;;;;24.05;73.65;97343.94;18303389;32;20058;-62
2022/08/18 13:24:36;;;;;;;4.68;4.05;;;;;;;24.04;70.59;97340.41;18289264;32;20058;-62
2022/08/18 13:34:41;;;;;;;4.47;3.47;;;;;;;24.30;68.73;97327.81;18302378;32;20062;-62
2022/08/18 13:44:53;;;;;;;;;;;;;;;25.06;66.27;97329.75;18301843;32;20099;-62
2022/08/18 13:55:27;;;;;;;4.20;3.55;;;;;;;25.42;69.45;97341.34;18300957;32;20008;-62
2022/08/18 14:05:33;;;;;;;4.37;3.12;;;;;;;25.76;64.69;97346.06;18503004;32;20049;-63
2022/08/18 14:15:56;;;;;;;3.75;3.00;;;;;;;25.10;64.45;97349.19;18445894;32;20046;-63
2022/08/18 14:36:23;;;;;;;5.70;3.57;;;;;;;24.57;66.00;97347.19;18433988;32;20389;-62
2022/08/18 14:46:32;;;;;;;5.80;3.00;;;;;;;24.50;67.84;97356.16;18432870;32;20058;-62
2022/08/18 14:56:36;;;;;;;4.12;3.45;;;;;;;24.39;69.25;97353.22;18477195;32;20050;-62
2022/08/18 15:06:45;;;;;;;6.78;3.62;;;;;;;24.20;66.90;97362.38;18297616;32;20062;-62
2022/08/18 15:17:03;;;;;;;3.30;2.70;;;;;;;23.63;64.96;97364.84;18271953;32;20090;-62
2022/08/18 15:27:16;;;;;;;4.05;3.42;;;;;;;23.44;73.29;97369.19;18284900;32;20373;-62
2022/08/18 15:37:40;;;;;;;3.85;3.37;;;;;;;23.18;71.55;97381.66;18296503;32;20137;-62
2022/08/18 15:47:46;;;;;;;4.20;3.20;;;;;;;22.63;77.45;97384.31;18295908;32;20372;-62
2022/08/18 15:57:51;;;;;;;3.85;3.30;;;;;;;22.14;78.98;97365.34;18281376;32;20068;-62
2022/08/18 16:08:00;;;;;;;4.18;3.42;;;;;;;22.03;79.92;97361.53;18281404;32;20104;-62
2022/08/18 16:18:05;;;;;;;3.42;2.83;;;;;;;21.87;83.45;97365.06;18268064;32;20323;-62
2022/08/18 16:28:13;;;;;;;5.43;3.47;;;;;;;21.81;86.11;97355.44;18231487;32;20050;-63
2022/08/18 16:38:18;;;;;;;3.03;2.70;;;;;;;21.83;88.34;97355.91;18230908;32;20133;-63
2022/08/18 16:48:23;;;;;;;3.20;2.90;;;;;;;21.81;87.72;97353.47;18204440;32;20104;-63
2022/08/18 17:08:53;;;;;;;4.00;3.10;;;;;;;21.46;88.84;97364.25;18229796;32;20054;-62
2022/08/18 17:18:59;;;;;;;3.58;3.00;;;;;;;21.24;89.38;97355.41;18229408;32;20054;-62
2022/08/18 17:29:14;;;;;;;4.97;2.95;;;;;;;21.10;92.37;97344.81;18215068;32;20098;-63
2022/08/18 17:39:23;;;;;;;4.90;3.15;;;;;;;20.96;95.34;97341.63;18239004;32;20518;-62
2022/08/18 18:00:17;;;;;;;3.55;3.00;;;;;;;20.44;99.03;97348.59;18237695;32;20038;-62
2022/08/18 18:10:28;;;;;;;3.47;3.05;;;;;;;20.23;99.86;97355.00;18237485;32;20121;-62
2022/08/18 18:20:40;;;;;;;3.87;3.10;;;;;;;20.00;100.00;97353.81;18237001;32;20426;-62
2022/08/18 18:30:45;;;;;;;3.70;3.08;;;;;;;19.80;100.00;97350.78;18236920;32;20114;-62
2022/08/18 18:41:12;;;;;;;3.10;2.60;;;;;;;19.64;100.00;97369.81;18236304;32;20094;-62
2022/08/18 18:51:29;;;;;;;5.20;3.00;;;;;;;19.43;100.00;97362.41;18228357;32;20364;-62
2022/08/18 19:01:59;;;;;;;4.55;3.12;;;;;;;19.32;100.00;97383.12;18235119;32;20435;-62
2022/08/18 19:12:24;;;;;;;3.05;2.65;;;;;;;19.25;100.00;97375.47;18221821;32;20054;-62
2022/08/18 19:22:43;;;;;;;3.20;2.90;;;;;;;19.20;100.00;97386.63;18234278;32;20049;-63
2022/08/18 19:32:56;;;;;;;4.32;2.97;;;;;;;19.11;100.00;97386.66;18220621;32;20047;-62
2022/08/18 19:43:10;;;;;;;4.75;2.97;;;;;;;18.99;100.00;97383.84;18233631;32;20481;-63
2022/08/18 19:53:43;;;;;;;3.08;2.47;;;;;;;18.94;100.00;97393.06;18218467;32;20058;-62
2022/08/18 20:04:35;;;;;;;3.47;2.70;;;;;;;18.87;100.00;97392.75;18232171;32;20056;-62
2022/08/18 20:14:42;;;;;;;3.20;2.90;;;;;;;18.83;100.00;97415.66;18231713;32;20463;-63
2022/08/18 20:25:04;;;;;;;3.00;2.70;;;;;;;18.77;100.00;97417.78;18231636;32;20091;-63
2022/08/18 20:35:23;;;;;;;2.92;2.58;;;;;;;18.74;100.00;97421.19;18231259;32;20059;-62
2022/08/18 20:45:33;;;;;;;3.20;2.40;;;;;;;18.74;100.00;97427.47;18205178;32;20061;-63
2022/08/18 20:56:00;;;;;;;3.62;2.65;;;;;;;18.76;100.00;97430.69;18216283;32;20059;-63
2022/08/18 21:06:36;;;;;;;3.42;3.10;;;;;;;18.77;100.00;97428.72;18221689;32;20042;-63
2022/08/18 21:16:43;;;;;;;4.97;2.80;;;;;;;18.78;100.00;97436.62;18240235;32;20114;-63
2022/08/18 21:26:47;;;;;;;3.53;3.00;;;;;;;18.79;100.00;97449.19;18225946;32;20054;-63
2022/08/18 21:36:52;;;;;;;4.75;2.78;;;;;;;18.79;100.00;97446.44;18225537;32;20066;-63
2022/08/18 21:47:05;;;;;;;7.40;3.50;;;;;;;18.75;100.00;97450.19;18225243;32;20111;-62
2022/08/18 21:57:27;;;;;;;6.20;4.20;;;;;;;18.71;100.00;97479.38;18224395;32;20402;-62
2022/08/18 22:07:33;;;;;;;4.28;3.22;;;;;;;18.58;100.00;97482.00;18237773;32;20059;-62
2022/08/18 22:17:49;;;;;;;5.07;3.70;;;;;;;18.51;100.00;97484.41;18236672;32;20125;-62
2022/08/18 22:27:55;;;;;;;3.72;2.50;;;;;;;18.29;100.00;97488.16;18223240;32;20377;-62
2022/08/18 22:38:00;;;;;;;3.55;2.80;;;;;;;18.24;100.00;97489.16;18222962;32;20050;-63
2022/08/18 22:48:03;;;;;;;2.20;1.87;;;;;;;18.26;100.00;97499.78;18235999;32;20062;-63
2022/08/18 22:58:06;;;;;;;3.33;2.17;;;;;;;18.23;100.00;97501.22;18235047;32;20047;-63
2022/08/18 23:08:11;;;;;;;2.90;1.85;;;;;;;18.15;100.00;97488.34;18235344;32;20073;-62
2022/08/18 23:18:18;;;;;;;2.80;1.77;;;;;;;18.04;100.00;97495.28;18235044;32;20358;-63
2022/08/18 23:28:23;;;;;;;2.67;2.20;;;;;;;17.97;100.00;97470.37;18234434;32;20070;-63
2022/08/18 23:38:28;;;;;;;3.15;2.08;;;;;;;17.99;100.00;97479.84;18220444;32;20062;-63
2022/08/18 23:48:33;;;;;;;3.37;2.37;;;;;;;17.91;100.00;97473.25;18233573;32;20403;-63
2022/08/18 23:58:36;;;;;;;3.10;1.73;;;;;;;17.87;100.00;97469.53;18218682;32;20050;-63
